Fareham, United Kingdom
Current Conditions -  °F | °C
As of 5:50 PM on Friday 21 Nov 2014 (Local Time) from EGHI Reporting Station
Scattered Clouds Scattered Clouds  
Wind Chill: 50°   Ceiling: Unl
Heat Index: 50°   Visibility: 4mi
Dew Point: 46°   Wind: 9mph
Humidity: 87%   Direction: 110°ESE
Pressure: 29.91"   Gusts: NA
Location:  50.85°N, 1.18°W
Report Text: EGHI 211750Z 11008KT 080V150 6000 FEW010 SCT017 10/08 Q1013
Loading
Personal Weather Stations






























Interactive Weather Map New forecast layout! Learn more

10-Day Weather Forecast

Advertisements
Track Severe Weather on mobile